createdAt,value
2019-02-04T00:02:55.279Z,3.73
2019-02-04T00:07:58.669Z,4.17
2019-02-04T00:13:02.084Z,3.40
2019-02-04T00:18:05.854Z,2.70
2019-02-04T00:23:10.257Z,3.20
2019-02-04T00:28:13.752Z,2.67
2019-02-04T00:33:17.136Z,3.40
2019-02-04T00:38:20.613Z,5.13
2019-02-04T00:43:24.119Z,3.67
2019-02-04T00:48:27.551Z,3.70
2019-02-04T00:53:30.996Z,3.10
2019-02-04T00:58:34.460Z,3.87
2019-02-04T01:03:37.928Z,3.70
2019-02-04T01:08:41.396Z,4.57
2019-02-04T01:13:44.769Z,4.27
2019-02-04T01:18:48.224Z,3.07
2019-02-04T01:23:51.720Z,2.90
2019-02-04T01:28:55.149Z,2.60
2019-02-04T01:33:58.655Z,4.17
2019-02-04T01:39:02.059Z,3.92
2019-02-04T01:44:05.864Z,3.33
2019-02-04T01:49:09.673Z,3.13
2019-02-04T01:54:13.059Z,3.00
2019-02-04T01:59:16.431Z,4.17
2019-02-04T02:04:19.869Z,2.90
2019-02-04T02:09:24.940Z,4.30
2019-02-04T02:14:28.484Z,2.23
2019-02-04T02:19:31.884Z,4.20
2019-02-04T02:24:35.344Z,3.37
2019-02-04T02:29:38.712Z,2.27
2019-02-04T02:34:42.175Z,2.12
2019-02-04T02:39:45.624Z,2.37
2019-02-04T02:44:49.075Z,4.13
2019-02-04T02:49:52.440Z,2.20
2019-02-04T02:54:55.876Z,3.37
2019-02-04T02:59:59.342Z,3.03
2019-02-04T03:05:03.917Z,2.57
2019-02-04T03:10:09.294Z,2.30
2019-02-04T03:15:12.804Z,3.07
2019-02-04T03:20:16.209Z,2.80
2019-02-04T03:25:19.911Z,3.00
2019-02-04T03:30:25.506Z,2.60
2019-02-04T03:35:28.895Z,3.30
2019-02-04T03:40:32.962Z,2.97
2019-02-04T03:45:36.372Z,2.07
2019-02-04T03:50:39.877Z,3.00
2019-02-04T03:55:43.280Z,3.17
2019-02-04T04:00:46.895Z,2.87
2019-02-04T04:05:50.271Z,3.13
2019-02-04T04:10:53.764Z,1.80
2019-02-04T04:15:57.311Z,3.10
2019-02-04T04:21:00.774Z,2.10
2019-02-04T04:26:04.152Z,2.43
2019-02-04T04:31:07.723Z,1.80
2019-02-04T04:36:11.099Z,1.67
2019-02-04T04:41:14.619Z,2.87
2019-02-04T04:46:17.981Z,1.67
2019-02-04T04:51:21.478Z,1.23
2019-02-04T04:56:24.845Z,1.93
2019-02-04T05:01:28.220Z,2.20
2019-02-04T05:06:31.634Z,1.97
2019-02-04T05:11:35.036Z,2.97
2019-02-04T05:16:38.462Z,1.93
2019-02-04T05:21:41.915Z,1.83
2019-02-04T05:26:45.291Z,0.90
2019-02-04T05:31:48.775Z,1.07
2019-02-04T05:36:52.155Z,3.10
2019-02-04T05:41:55.590Z,2.30
2019-02-04T05:46:59.087Z,1.63
2019-02-04T05:52:02.507Z,0.97
2019-02-04T05:57:05.973Z,4.10
2019-02-04T06:02:09.619Z,2.10
2019-02-04T06:07:15.398Z,2.57
2019-02-04T06:12:17.528Z,1.73
2019-02-04T06:17:20.920Z,2.00
2019-02-04T06:22:24.430Z,1.92
2019-02-04T06:27:27.940Z,2.10
2019-02-04T06:32:31.354Z,1.70
2019-02-04T06:37:34.777Z,2.17
2019-02-04T06:42:38.181Z,2.23
2019-02-04T06:47:41.595Z,3.13
2019-02-04T06:52:45.000Z,3.80
2019-02-04T06:57:48.436Z,4.70
2019-02-04T07:02:51.816Z,5.83
2019-02-04T07:07:55.245Z,2.90
2019-02-04T07:12:58.706Z,3.10
2019-02-04T07:18:02.259Z,2.20
2019-02-04T07:23:05.561Z,7.15
2019-02-04T07:28:08.955Z,2.60
2019-02-04T07:33:12.367Z,2.30
2019-02-04T07:38:15.800Z,2.97
2019-02-04T07:43:19.258Z,7.47
2019-02-04T07:48:22.751Z,3.08
2019-02-04T07:53:26.117Z,3.03
2019-02-04T07:58:29.547Z,2.90
2019-02-04T08:03:32.916Z,2.93
2019-02-04T08:08:36.306Z,4.20
2019-02-04T08:13:39.732Z,4.00
2019-02-04T08:18:43.111Z,4.33
2019-02-04T08:23:46.497Z,4.67
2019-02-04T08:28:49.968Z,3.80
2019-02-04T08:33:53.367Z,4.57
2019-02-04T08:38:56.786Z,5.47
2019-02-04T08:44:00.236Z,3.03
2019-02-04T08:49:03.622Z,5.47
2019-02-04T08:54:07.027Z,4.40
2019-02-04T08:59:10.398Z,6.00
2019-02-04T09:04:13.789Z,3.03
2019-02-04T09:09:17.255Z,4.07
2019-02-04T09:14:20.668Z,5.03
2019-02-04T09:19:24.077Z,5.37
2019-02-04T09:24:27.634Z,4.47
2019-02-04T09:29:31.066Z,4.03
2019-02-04T09:34:34.541Z,5.67
2019-02-04T09:39:37.945Z,4.90
2019-02-04T09:44:41.356Z,4.07
2019-02-04T09:49:44.796Z,3.77
2019-02-04T09:54:48.233Z,4.90
2019-02-04T09:59:51.771Z,4.60
2019-02-04T10:04:55.225Z,5.07
2019-02-04T10:09:59.129Z,5.60
2019-02-04T10:15:02.355Z,7.07
2019-02-04T10:20:06.483Z,9.43
2019-02-04T10:25:10.715Z,7.80
2019-02-04T10:30:16.566Z,5.73
2019-02-04T10:35:20.394Z,7.00
2019-02-04T10:40:27.565Z,6.20
2019-02-04T10:45:30.967Z,5.10
2019-02-04T10:50:45.592Z,5.00
2019-02-04T10:55:39.746Z,4.60
2019-02-04T11:00:43.339Z,5.30
2019-02-04T11:05:46.721Z,4.27
2019-02-04T11:10:50.161Z,6.30
2019-02-04T11:15:53.568Z,6.50
2019-02-04T11:20:58.382Z,5.53
2019-02-04T11:26:00.542Z,7.37
2019-02-04T11:31:06.681Z,4.27
2019-02-04T11:36:10.110Z,7.63
2019-02-04T11:41:13.527Z,5.80
2019-02-04T11:46:17.106Z,7.27
2019-02-04T11:51:20.673Z,5.37
2019-02-04T11:56:24.091Z,5.83
2019-02-04T12:01:27.483Z,4.75
2019-02-04T12:06:30.888Z,4.23
2019-02-04T12:11:34.424Z,6.73
2019-02-04T12:16:37.839Z,5.17
2019-02-04T12:21:41.337Z,4.73
2019-02-04T12:26:44.689Z,5.27
2019-02-04T12:31:48.062Z,4.37
2019-02-04T12:36:51.593Z,4.30
2019-02-04T12:41:55.067Z,6.33
2019-02-04T12:46:58.618Z,5.33
2019-02-04T12:52:02.015Z,5.77
2019-02-04T12:57:05.482Z,5.77
2019-02-04T13:02:08.859Z,5.43
2019-02-04T13:07:12.373Z,5.77
2019-02-04T13:12:15.803Z,6.67
2019-02-04T13:17:19.366Z,6.70
2019-02-04T13:22:23.141Z,6.17
2019-02-04T13:27:26.655Z,6.70
2019-02-04T13:32:30.130Z,5.87
2019-02-04T13:37:33.708Z,6.20
2019-02-04T13:42:37.227Z,6.57
2019-02-04T13:47:40.946Z,6.10
2019-02-04T13:52:44.476Z,5.17
2019-02-04T13:57:47.954Z,5.80
2019-02-04T14:02:58.994Z,5.23
2019-02-04T14:07:55.307Z,4.70
2019-02-04T14:12:58.902Z,3.70
2019-02-04T14:18:02.470Z,4.73
2019-02-04T14:23:06.179Z,4.40
2019-02-04T14:28:09.927Z,5.70
2019-02-04T14:33:13.755Z,5.13
2019-02-04T14:38:17.533Z,4.87
2019-02-04T14:43:25.048Z,4.80
2019-02-04T14:48:46.520Z,4.50
2019-02-04T14:56:21.254Z,3.77
2019-02-04T15:01:42.420Z,4.47
2019-02-04T15:09:05.361Z,4.27
2019-02-04T15:16:21.007Z,4.40
2019-02-04T15:21:35.557Z,4.53
2019-02-04T15:28:50.995Z,5.07
2019-02-04T15:34:37.268Z,4.57
2019-02-04T15:40:21.382Z,4.17
2019-02-04T15:47:36.073Z,4.73
2019-02-04T15:52:45.709Z,5.17
2019-02-04T15:57:43.355Z,4.40
2019-02-04T16:02:47.054Z,6.60
2019-02-04T16:07:50.550Z,4.50
2019-02-04T16:12:54.219Z,3.87
2019-02-04T16:17:57.737Z,3.40
2019-02-04T16:23:01.338Z,4.07
2019-02-04T16:28:05.005Z,4.33
2019-02-04T16:33:08.527Z,4.85
2019-02-04T16:38:12.272Z,4.27
2019-02-04T16:43:15.806Z,3.30
2019-02-04T16:48:19.304Z,2.87
2019-02-04T16:53:23.194Z,3.63
2019-02-04T16:58:26.708Z,3.33
2019-02-04T17:03:30.347Z,3.83
2019-02-04T17:08:33.904Z,4.83
2019-02-04T17:13:37.580Z,4.90
2019-02-04T17:18:41.232Z,2.93
2019-02-04T17:23:44.863Z,2.13
2019-02-04T17:28:48.654Z,2.80
2019-02-04T17:33:52.285Z,3.90
2019-02-04T17:38:55.858Z,2.50
2019-02-04T17:43:59.990Z,7.30
2019-02-04T17:49:03.497Z,6.33
2019-02-04T17:54:07.096Z,4.93
2019-02-04T17:59:10.780Z,6.93
2019-02-04T18:04:14.335Z,6.93
2019-02-04T18:09:18.480Z,14.97
2019-02-04T18:14:21.995Z,11.03
2019-02-04T18:19:25.648Z,8.87
2019-02-04T18:24:29.529Z,7.80
2019-02-04T18:29:33.229Z,4.43
2019-02-04T18:34:36.888Z,3.02
2019-02-04T18:39:40.583Z,4.03
2019-02-04T18:44:44.105Z,5.97
2019-02-04T18:49:47.865Z,7.53
2019-02-04T18:54:51.636Z,5.07
2019-02-04T18:59:55.210Z,5.53
2019-02-04T19:04:58.805Z,3.43
2019-02-04T19:10:02.588Z,4.87
2019-02-04T19:15:08.373Z,3.77
2019-02-04T19:20:13.840Z,5.30
2019-02-04T19:25:17.814Z,4.33
2019-02-04T19:30:25.375Z,2.30
2019-02-04T19:35:28.964Z,2.80
2019-02-04T19:40:32.498Z,4.83
2019-02-04T19:45:36.707Z,4.33
2019-02-04T19:50:41.709Z,5.07
2019-02-04T19:55:46.050Z,4.07
2019-02-04T20:00:50.133Z,3.27
2019-02-04T20:05:54.456Z,5.33
2019-02-04T20:10:58.376Z,2.23
2019-02-04T20:16:02.188Z,4.43
2019-02-04T20:21:06.478Z,5.60
2019-02-04T20:26:10.469Z,7.07
2019-02-04T20:31:14.223Z,6.70
2019-02-04T20:36:17.801Z,7.30
2019-02-04T20:41:21.565Z,7.47
2019-02-04T20:46:25.153Z,6.50
2019-02-04T20:51:28.733Z,6.47
2019-02-04T20:56:33.982Z,6.67
2019-02-04T21:01:37.096Z,5.37
2019-02-04T21:06:40.950Z,5.77
2019-02-04T21:11:44.637Z,5.70
2019-02-04T21:16:48.604Z,5.00
2019-02-04T21:21:52.292Z,3.37
2019-02-04T21:26:56.177Z,5.53
2019-02-04T21:32:00.012Z,5.63
2019-02-04T21:37:03.771Z,4.47
2019-02-04T21:42:07.759Z,3.45
2019-02-04T21:47:11.437Z,3.13
2019-02-04T21:52:15.415Z,2.97
2019-02-04T21:57:19.402Z,5.77
2019-02-04T22:02:24.496Z,3.80
2019-02-04T22:07:28.367Z,3.63
2019-02-04T22:12:32.148Z,5.83
2019-02-04T22:17:36.221Z,4.07
2019-02-04T22:22:40.100Z,3.43
2019-02-04T22:27:44.197Z,3.57
2019-02-04T22:32:48.146Z,3.83
2019-02-04T22:37:51.949Z,4.90
2019-02-04T22:42:57.375Z,3.30
2019-02-04T22:48:01.218Z,3.03
2019-02-04T22:53:04.953Z,2.63
2019-02-04T22:58:08.537Z,3.77
2019-02-04T23:03:12.673Z,3.20
2019-02-04T23:08:16.241Z,3.37
2019-02-04T23:13:19.745Z,2.20
2019-02-04T23:18:23.462Z,3.87
2019-02-04T23:23:27.089Z,2.13
2019-02-04T23:28:30.832Z,3.57
2019-02-04T23:33:34.625Z,4.20
2019-02-04T23:38:38.317Z,5.00
2019-02-04T23:43:41.944Z,5.40
2019-02-04T23:48:45.340Z,4.47
2019-02-04T23:53:48.947Z,3.43
2019-02-04T23:58:52.483Z,5.58
